SFM weather

Sanford Seacoast Regional Airport
Sanford, Maine, United States

Public forecast

Using degrees Fahrenheit for public forecast. Weather courtesy of forecast.io.

Current aviation weather report (METAR) for Sanford Seacoast Regional Airport

Retrieved 2019/10/19 05:56 UTC (26 minutes ago):

KSFM 190556Z AUTO 26004KT 10SM CLR 03/01 A2990 RMK AO2 SLP131 T00280011 10083 20017 53013

Closest aviation forecast (TAF) to Sanford Seacoast Regional Airport

Closest forecast is Portsmouth International at Pease Airport, 19.6 nm (36.4 km) SSW. Retrieved 2019/10/19 06:22 UTC (10 seconds ago):

TAF KPSM 190520Z 1906/2006 28006KT P6SM SKC FM191300 30009G15KT P6SM SKC